Terminal Aerodrome Forecast
Issued by NWS Pueblo, CO

Home | Current Version | Previous Version | Text Only | Print | Product List | Glossary On
Versions: 1 2 3 4 5 6 7 8 9 10 11 12 13 14 15 16 17 18 19 20 21 22 23 24 25 26 27 28 29
000
FTUS45 KPUB 210527
TAFPUB
TAF
KPUB 210527Z 2106/2206 08007KT P6SM SCT070 BKN100
     FM210700 08010KT P6SM VCTS SCT050CB BKN070
      TEMPO 2107/2111 4SM -TSRA OVC050CB
     FM211200 10008KT P6SM BKN012 OVC050
     FM212100 12012KT P6SM SCT030 BKN060
     FM220300 10007KT P6SM SCT030 BKN060=

USA.gov is the U.S. government's official web portal to all federal, state and local government web resources and services.